Time;durP1;ratioP1;P1;durP2;ratioP2;P2;SDS_P1;SDS_P2;PMS_P1;PMS_P2;Temp;Humidity;BMP_temperature;BMP_pressure;BME280_temperature;BME280_humidity;BME280_pressure;Samples;Min_cycle;Max_cycle;Signal;HPM_P1;HPM_P2
2023/06/17 00:01:27;135364.00;0.45;234.58;0.00;0.00;0.62;;;;;21.10;1.00;;;;;;2268443;61;1704;-86
2023/06/17 00:03:54;40933.00;0.14;71.50;0.00;0.00;0.62;;;;;20.80;1.00;;;;;;2268503;61;1997;-87
2023/06/17 00:06:21;168386.00;0.56;291.49;0.00;0.00;0.62;;;;;20.70;1.00;;;;;;2268384;61;1379;-90
2023/06/17 00:08:48;109491.00;0.36;189.95;0.00;0.00;0.62;;;;;20.90;1.00;;;;;;2268449;61;1063;-86
2023/06/17 00:11:14;110407.00;0.37;191.53;0.00;0.00;0.62;;;;;20.80;1.00;;;;;;2268431;61;1703;-87
2023/06/17 00:13:41;82100.00;0.27;142.66;0.00;0.00;0.62;;;;;20.50;1.00;;;;;;2268557;61;1135;-87
2023/06/17 00:16:12;442332.00;1.47;762.59;60913.00;0.20;106.06;;;;;20.20;1.00;;;;;;2268389;61;1266;-89
2023/06/17 00:18:41;15473.00;0.05;27.43;0.00;0.00;0.62;;;;;19.80;1.00;;;;;;2268502;61;1080;-86
2023/06/17 00:21:08;64914.00;0.22;112.97;0.00;0.00;0.62;;;;;19.50;1.00;;;;;;2268428;61;1048;-86
2023/06/17 00:23:35;115268.00;0.38;199.92;0.00;0.00;0.62;;;;;19.00;1.00;;;;;;2268394;61;1920;-86
2023/06/17 00:26:03;551525.00;1.84;950.59;138010.00;0.46;239.14;;;;;18.90;1.00;;;;;;2268349;61;1397;-84
2023/06/17 00:28:29;98289.00;0.33;170.62;0.00;0.00;0.62;;;;;18.70;1.00;;;;;;2268433;61;1633;-86
2023/06/17 00:30:56;5337.00;0.02;9.87;0.00;0.00;0.62;;;;;18.60;1.00;;;;;;2268475;61;1035;-86
2023/06/17 00:33:23;6883.00;0.02;12.55;0.00;0.00;0.62;;;;;18.40;1.00;;;;;;2268453;61;974;-84
2023/06/17 00:35:52;214050.00;0.71;370.11;0.00;0.00;0.62;;;;;18.00;1.00;;;;;;2268346;61;1456;-86
2023/06/17 00:38:18;26136.00;0.09;45.89;0.00;0.00;0.62;;;;;17.60;1.00;;;;;;2268362;61;1435;-86
2023/06/17 00:40:45;111351.00;0.37;193.16;0.00;0.00;0.62;;;;;17.40;1.00;;;;;;2268465;61;1173;-86
2023/06/17 00:43:12;190856.00;0.64;330.18;28345.00;0.09;49.72;;;;;17.40;1.00;;;;;;2268364;61;1919;-87
2023/06/17 00:45:39;8594.00;0.03;15.51;0.00;0.00;0.62;;;;;17.40;1.00;;;;;;2268390;61;1418;-87
2023/06/17 00:48:08;197779.00;0.66;342.10;13861.00;0.05;24.64;;;;;17.70;1.00;;;;;;2268313;61;1224;-88
2023/06/17 00:50:36;19923.00;0.07;35.14;0.00;0.00;0.62;;;;;18.20;1.00;;;;;;2268287;61;1051;-86
2023/06/17 00:53:06;0.00;0.00;0.62;0.00;0.00;0.62;;;;;18.60;1.00;;;;;;2268304;61;953;-89
2023/06/17 00:55:34;64923.00;0.22;112.99;0.00;0.00;0.62;;;;;19.10;1.00;;;;;;2268405;61;904;-89
2023/06/17 00:58:01;70799.00;0.24;123.14;0.00;0.00;0.62;;;;;19.50;1.00;;;;;;2268247;61;1486;-84
2023/06/17 01:00:28;81725.00;0.27;142.02;0.00;0.00;0.62;;;;;19.30;1.00;;;;;;2268327;61;1002;-88
2023/06/17 01:02:56;0.00;0.00;0.62;0.00;0.00;0.62;;;;;19.00;1.00;;;;;;2268295;61;1928;-87
2023/06/17 01:05:23;37902.00;0.13;66.26;0.00;0.00;0.62;;;;;19.00;1.00;;;;;;2268312;61;1101;-88
2023/06/17 01:08:03;55017.00;0.18;95.86;0.00;0.00;0.62;;;;;19.50;1.00;;;;;;2268279;61;1589;-87
2023/06/17 01:10:40;68196.00;0.23;118.64;0.00;0.00;0.62;;;;;20.30;1.00;;;;;;2268408;61;1133;-88
2023/06/17 01:13:07;85847.00;0.29;149.14;0.00;0.00;0.62;;;;;20.50;1.00;;;;;;2268274;61;1296;-87
2023/06/17 01:15:35;89160.00;0.30;154.86;0.00;0.00;0.62;;;;;20.20;1.00;;;;;;2268276;61;1158;-88
2023/06/17 01:18:04;48795.00;0.16;85.10;0.00;0.00;0.62;;;;;19.80;1.00;;;;;;2268271;61;1344;-90
2023/06/17 01:20:32;154254.00;0.51;267.14;13698.00;0.05;24.36;;;;;19.70;1.00;;;;;;2268261;61;1664;-88
2023/06/17 01:23:01;11252.00;0.04;20.12;0.00;0.00;0.62;;;;;19.60;1.00;;;;;;2268217;61;2118;-89
2023/06/17 01:25:31;32726.00;0.11;57.30;0.00;0.00;0.62;;;;;19.50;1.00;;;;;;2268246;61;1075;-87
2023/06/17 01:28:00;73762.00;0.25;128.26;0.00;0.00;0.62;;;;;19.30;1.00;;;;;;2268285;61;1550;-90
2023/06/17 01:30:30;12658.00;0.04;22.55;0.00;0.00;0.62;;;;;19.80;1.00;;;;;;2268271;61;1823;-87
2023/06/17 01:32:58;86375.00;0.29;150.05;0.00;0.00;0.62;;;;;19.80;1.00;;;;;;2268206;61;1131;-87
2023/06/17 01:35:31;39815.00;0.13;69.57;0.00;0.00;0.62;;;;;19.60;1.00;;;;;;2268244;61;1071;-87
2023/06/17 01:38:05;83569.00;0.28;145.20;0.00;0.00;0.62;;;;;18.90;1.00;;;;;;2268129;61;1419;-87
2023/06/17 01:40:35;181470.00;0.60;314.02;29752.00;0.10;52.15;;;;;18.30;1.00;;;;;;2268215;61;1148;-85
2023/06/17 01:43:05;324112.00;1.08;559.37;117141.00;0.39;203.15;;;;;17.90;1.00;;;;;;2268148;61;1999;-87
2023/06/17 01:45:33;49810.00;0.17;86.86;0.00;0.00;0.62;;;;;18.10;1.00;;;;;;2268224;61;1142;-87
2023/06/17 01:48:00;157836.00;0.53;273.31;0.00;0.00;0.62;;;;;18.40;1.00;;;;;;2268183;61;1363;-88
2023/06/17 01:50:27;7107.00;0.02;12.94;0.00;0.00;0.62;;;;;19.00;1.00;;;;;;2268213;61;1056;-88
2023/06/17 01:52:54;305423.00;1.02;527.24;113218.00;0.38;196.38;;;;;19.40;1.00;;;;;;2268164;61;1098;-88
2023/06/17 01:55:20;67682.00;0.23;117.75;0.00;0.00;0.62;;;;;19.20;1.00;;;;;;2268194;61;1154;-86
2023/06/17 01:57:49;148525.00;0.50;257.27;3169.00;0.01;6.11;;;;;19.00;1.00;;;;;;2268150;61;1432;-88
2023/06/17 02:00:17;163407.00;0.54;282.91;5624.00;0.02;10.37;;;;;19.00;1.00;;;;;;2268087;61;1018;-87
2023/06/17 02:02:44;66448.00;0.22;115.62;0.00;0.00;0.62;;;;;18.80;1.00;;;;;;2268124;61;1006;-87
2023/06/17 02:05:11;512.00;0.00;1.51;0.00;0.00;0.62;;;;;18.70;1.00;;;;;;2268140;61;1997;-84
2023/06/17 02:07:38;43837.00;0.15;76.53;0.00;0.00;0.62;;;;;18.60;1.00;;;;;;2268089;61;1323;-86
2023/06/17 02:10:05;103217.00;0.34;179.12;35408.00;0.12;61.94;;;;;18.50;1.00;;;;;;2268180;61;1027;-88
2023/06/17 02:12:33;35029.00;0.12;61.29;0.00;0.00;0.62;;;;;18.10;1.00;;;;;;2268086;61;932;-87
2023/06/17 02:15:02;20819.00;0.07;36.69;0.00;0.00;0.62;;;;;18.00;1.00;;;;;;2268146;61;970;-87
2023/06/17 02:17:29;24144.00;0.08;42.45;0.00;0.00;0.62;;;;;17.80;1.00;;;;;;2268048;61;1403;-86
2023/06/17 02:19:56;108243.00;0.36;187.80;0.00;0.00;0.62;;;;;17.50;1.00;;;;;;2268069;61;1574;-89
2023/06/17 02:22:23;57817.00;0.19;100.70;0.00;0.00;0.62;;;;;17.50;1.00;;;;;;2268128;61;1018;-89
2023/06/17 02:24:50;68142.00;0.23;118.55;0.00;0.00;0.62;;;;;17.20;1.00;;;;;;2268051;61;2004;-89
2023/06/17 02:27:18;0.00;0.00;0.62;0.00;0.00;0.62;;;;;17.30;1.00;;;;;;2267943;61;1328;-86
2023/06/17 02:29:45;34578.00;0.12;60.51;0.00;0.00;0.62;;;;;17.30;1.00;;;;;;2267720;61;1114;-86
2023/06/17 02:32:13;286082.00;0.95;493.99;52579.00;0.18;91.65;;;;;17.40;1.00;;;;;;2268030;61;1139;-86
2023/06/17 02:34:42;65948.00;0.22;114.76;0.00;0.00;0.62;;;;;17.70;1.00;;;;;;2268021;61;1059;-86
2023/06/17 02:37:09;71611.00;0.24;124.54;0.00;0.00;0.62;;;;;18.10;1.00;;;;;;2267919;61;1473;-87
2023/06/17 02:39:36;16408.00;0.05;29.05;0.00;0.00;0.62;;;;;18.20;1.00;;;;;;2267886;61;1752;-86
2023/06/17 02:42:03;17026.00;0.06;30.12;0.00;0.00;0.62;;;;;18.20;1.00;;;;;;2267942;61;1590;-86
2023/06/17 02:44:30;23923.00;0.08;42.06;0.00;0.00;0.62;;;;;18.20;1.00;;;;;;2267992;61;1994;-84
2023/06/17 02:46:57;89588.00;0.30;155.60;0.00;0.00;0.62;;;;;18.40;1.00;;;;;;2267897;61;1397;-87
2023/06/17 02:49:26;13342.00;0.04;23.74;0.00;0.00;0.62;;;;;18.90;1.00;;;;;;2268025;61;1068;-88
2023/06/17 02:51:53;73569.00;0.25;127.93;0.00;0.00;0.62;;;;;18.80;1.00;;;;;;2268000;61;1044;-85
2023/06/17 02:54:19;23769.00;0.08;41.80;0.00;0.00;0.62;;;;;18.60;1.00;;;;;;2268025;61;937;-86
2023/06/17 02:56:46;47504.00;0.16;82.87;0.00;0.00;0.62;;;;;18.20;1.00;;;;;;2267997;61;1413;-85
2023/06/17 02:59:15;2740.00;0.01;5.37;0.00;0.00;0.62;;;;;17.40;1.00;;;;;;2268054;61;1138;-85
2023/06/17 03:01:42;119627.00;0.40;207.44;0.00;0.00;0.62;;;;;17.20;1.00;;;;;;2267853;61;1039;-87
2023/06/17 03:04:10;100358.00;0.33;174.19;0.00;0.00;0.62;;;;;17.20;1.00;;;;;;2267921;61;1984;-87
2023/06/17 03:06:40;5329.00;0.02;9.86;0.00;0.00;0.62;;;;;17.10;1.00;;;;;;2267958;61;1399;-86
2023/06/17 03:09:08;0.00;0.00;0.62;0.00;0.00;0.62;;;;;17.30;1.00;;;;;;2267952;61;1546;-87
2023/06/17 03:11:36;79667.00;0.27;138.46;0.00;0.00;0.62;;;;;17.40;1.00;;;;;;2267993;61;1570;-89
2023/06/17 03:14:03;147015.00;0.49;254.66;0.00;0.00;0.62;;;;;17.10;1.00;;;;;;2268662;61;1158;-89
2023/06/17 03:16:33;123134.00;0.41;213.49;0.00;0.00;0.62;;;;;17.00;1.00;;;;;;2268615;61;1331;-87
2023/06/17 03:19:00;28269.00;0.09;49.59;0.00;0.00;0.62;;;;;17.20;1.00;;;;;;2268593;61;996;-88
2023/06/17 03:21:29;313127.00;1.04;540.48;92538.00;0.31;160.69;;;;;17.30;1.00;;;;;;2268660;61;1178;-88
2023/06/17 03:23:58;23247.00;0.08;40.89;0.00;0.00;0.62;;;;;17.50;1.00;;;;;;2268600;61;1994;-88
2023/06/17 03:26:25;39834.00;0.13;69.60;0.00;0.00;0.62;;;;;18.00;1.00;;;;;;2268636;61;1304;-85
2023/06/17 03:28:53;116466.00;0.39;201.99;0.00;0.00;0.62;;;;;17.80;1.00;;;;;;2268661;61;909;-87
2023/06/17 03:31:21;2294.00;0.01;4.60;0.00;0.00;0.62;;;;;17.50;1.00;;;;;;2268629;61;1272;-86
2023/06/17 03:33:49;193702.00;0.65;335.08;21609.00;0.07;38.06;;;;;17.30;1.00;;;;;;2268630;61;1176;-88
2023/06/17 03:36:17;0.00;0.00;0.62;0.00;0.00;0.62;;;;;17.50;1.00;;;;;;2268599;61;1361;-90
2023/06/17 03:38:46;28669.00;0.10;50.28;0.00;0.00;0.62;;;;;17.30;1.00;;;;;;2268614;61;1012;-87
2023/06/17 03:41:14;125554.00;0.42;217.66;0.00;0.00;0.62;;;;;17.50;1.00;;;;;;2268587;61;1003;-87
2023/06/17 03:43:41;38420.00;0.13;67.15;0.00;0.00;0.62;;;;;17.50;1.00;;;;;;2268527;61;2007;-87
2023/06/17 03:46:08;14581.00;0.05;25.88;0.00;0.00;0.62;;;;;17.60;1.00;;;;;;2268558;61;1418;-87
2023/06/17 03:48:37;58935.00;0.20;102.64;0.00;0.00;0.62;;;;;17.60;1.00;;;;;;2268599;61;1135;-89
2023/06/17 03:51:04;91770.00;0.31;159.36;0.00;0.00;0.62;;;;;17.60;1.00;;;;;;2268623;61;1029;-87
2023/06/17 03:53:31;73220.00;0.24;127.32;0.00;0.00;0.62;;;;;17.50;1.00;;;;;;2268563;61;1068;-87
2023/06/17 03:55:58;221107.00;0.74;382.25;39820.00;0.13;69.58;;;;;17.50;1.00;;;;;;2268507;61;1367;-88
2023/06/17 03:58:26;96612.00;0.32;167.72;0.00;0.00;0.62;;;;;17.60;1.00;;;;;;2268537;61;1127;-87
2023/06/17 04:00:53;40537.00;0.14;70.82;0.00;0.00;0.62;;;;;17.70;1.00;;;;;;2268485;61;1114;-88
2023/06/17 04:03:24;124364.00;0.41;215.61;0.00;0.00;0.62;;;;;17.50;1.00;;;;;;2268472;61;2088;-87
2023/06/17 04:05:51;35877.00;0.12;62.75;0.00;0.00;0.62;;;;;17.00;1.00;;;;;;2268440;61;2014;-88
2023/06/17 04:08:18;230679.00;0.77;398.72;42201.00;0.14;73.70;;;;;16.90;1.00;;;;;;2268540;61;1108;-87
2023/06/17 04:10:47;0.00;0.00;0.62;0.00;0.00;0.62;;;;;16.60;1.00;;;;;;2268530;61;1050;-86
2023/06/17 04:13:14;209721.00;0.70;362.66;0.00;0.00;0.62;;;;;16.80;1.00;;;;;;2268396;61;1612;-88
2023/06/17 04:15:43;277131.00;0.92;478.60;0.00;0.00;0.62;;;;;17.30;1.00;;;;;;2268326;61;1343;-87
2023/06/17 04:18:10;58127.00;0.19;101.24;0.00;0.00;0.62;;;;;17.50;1.00;;;;;;2268463;61;1143;-87
2023/06/17 04:20:36;2443.00;0.01;4.85;0.00;0.00;0.62;;;;;17.30;1.00;;;;;;2268471;61;1096;-90
2023/06/17 04:23:04;103857.00;0.35;180.23;0.00;0.00;0.62;;;;;17.20;1.00;;;;;;2268469;61;1071;-88
2023/06/17 04:25:32;15410.00;0.05;27.32;0.00;0.00;0.62;;;;;17.40;1.00;;;;;;2268408;61;2020;-86
2023/06/17 04:28:01;95182.00;0.32;165.25;0.00;0.00;0.62;;;;;17.30;1.00;;;;;;2268433;61;1289;-87
2023/06/17 04:30:28;41763.00;0.14;72.94;0.00;0.00;0.62;;;;;17.40;1.00;;;;;;2268435;61;1114;-88
2023/06/17 04:33:00;0.00;0.00;0.62;0.00;0.00;0.62;;;;;17.50;1.00;;;;;;2268396;61;1050;-85
2023/06/17 04:35:27;44964.00;0.15;78.48;0.00;0.00;0.62;;;;;17.60;1.00;;;;;;2268371;61;1139;-86
2023/06/17 04:37:54;41437.00;0.14;72.37;0.00;0.00;0.62;;;;;17.70;1.00;;;;;;2268312;61;1225;-87
2023/06/17 04:40:22;132805.00;0.44;230.17;22354.00;0.07;39.35;;;;;17.50;1.00;;;;;;2268446;61;1065;-88
2023/06/17 04:42:49;46635.00;0.16;81.37;0.00;0.00;0.62;;;;;17.60;1.00;;;;;;2268378;61;1081;-86
2023/06/17 04:45:17;17401.00;0.06;30.77;0.00;0.00;0.62;;;;;18.20;1.00;;;;;;2268289;61;2008;-85
2023/06/17 04:47:44;191450.00;0.64;331.20;16062.00;0.05;28.45;;;;;18.50;1.00;;;;;;2268215;61;1451;-88
2023/06/17 04:50:15;85300.00;0.28;148.19;0.00;0.00;0.62;;;;;18.60;1.00;;;;;;2268362;61;1090;-84
2023/06/17 04:52:43;65707.00;0.22;114.34;0.00;0.00;0.62;;;;;19.00;1.00;;;;;;2268244;61;1158;-85
2023/06/17 04:55:14;3257.00;0.01;6.27;0.00;0.00;0.62;;;;;19.20;1.00;;;;;;2268375;61;1072;-85
2023/06/17 04:57:41;33677.00;0.11;58.95;0.00;0.00;0.62;;;;;19.10;1.00;;;;;;2268244;61;1357;-86
2023/06/17 05:00:10;30465.00;0.10;53.39;0.00;0.00;0.62;;;;;19.00;1.00;;;;;;2268355;61;1051;-89
2023/06/17 05:02:37;60452.00;0.20;105.26;0.00;0.00;0.62;;;;;18.80;1.00;;;;;;2268274;61;1083;-86
2023/06/17 05:05:04;0.00;0.00;0.62;0.00;0.00;0.62;;;;;19.20;1.00;;;;;;2268215;61;1927;-87
2023/06/17 05:07:33;10666.00;0.04;19.10;0.00;0.00;0.62;;;;;19.80;1.00;;;;;;2268261;61;1292;-86
2023/06/17 05:10:00;192230.00;0.64;332.55;32734.00;0.11;57.32;;;;;20.00;1.00;;;;;;2268326;61;1110;-90
2023/06/17 05:12:26;48792.00;0.16;85.10;0.00;0.00;0.62;;;;;20.50;1.00;;;;;;2268210;61;1288;-86
2023/06/17 05:14:53;74263.00;0.25;129.13;0.00;0.00;0.62;;;;;21.00;1.00;;;;;;2268310;61;1012;-86
2023/06/17 05:17:20;8807.00;0.03;15.88;0.00;0.00;0.62;;;;;21.60;1.00;;;;;;2268205;61;1327;-87
2023/06/17 05:19:48;20850.00;0.07;36.74;0.00;0.00;0.62;;;;;21.60;1.00;;;;;;2268300;61;1169;-87
2023/06/17 05:22:15;8364.00;0.03;15.11;0.00;0.00;0.62;;;;;21.50;1.00;;;;;;2268234;61;1706;-86
2023/06/17 05:24:43;172621.00;0.58;298.78;13179.00;0.04;23.46;;;;;21.60;1.00;;;;;;2268171;61;2005;-87
2023/06/17 05:27:10;35903.00;0.12;62.80;0.00;0.00;0.62;;;;;21.50;1.00;;;;;;2268094;61;1673;-85
2023/06/17 05:29:37;62695.00;0.21;109.14;0.00;0.00;0.62;;;;;21.80;1.00;;;;;;2268203;61;997;-86
2023/06/17 05:32:04;104218.00;0.35;180.85;0.00;0.00;0.62;;;;;21.60;1.00;;;;;;2268119;61;1174;-85
2023/06/17 05:34:31;0.00;0.00;0.62;0.00;0.00;0.62;;;;;21.30;1.00;;;;;;2268093;61;1581;-86
2023/06/17 05:36:58;302354.00;1.01;521.97;102702.00;0.34;178.24;;;;;21.30;1.00;;;;;;2267957;61;1321;-83
2023/06/17 05:39:25;61309.00;0.20;106.74;0.00;0.00;0.62;;;;;21.30;1.00;;;;;;2268191;61;1039;-88
2023/06/17 05:41:53;36924.00;0.12;64.57;0.00;0.00;0.62;;;;;22.50;1.00;;;;;;2268094;61;897;-83
2023/06/17 05:44:20;209323.00;0.70;361.97;0.00;0.00;0.62;;;;;24.50;1.00;;;;;;2268171;61;1992;-87
2023/06/17 05:46:47;0.00;0.00;0.62;0.00;0.00;0.62;;;;;25.90;1.00;;;;;;2268181;61;1288;-86
2023/06/17 05:49:14;32648.00;0.11;57.17;0.00;0.00;0.62;;;;;27.50;1.00;;;;;;2268165;61;1752;-87
2023/06/17 05:51:41;0.00;0.00;0.62;0.00;0.00;0.62;;;;;28.50;1.00;;;;;;2268061;61;1194;-87
2023/06/17 05:54:08;42160.00;0.14;73.63;0.00;0.00;0.62;;;;;29.30;1.00;;;;;;2268122;61;1696;-87
2023/06/17 05:56:35;29753.00;0.10;52.16;0.00;0.00;0.62;;;;;29.40;1.00;;;;;;2267947;61;1320;-87
2023/06/17 05:59:03;0.00;0.00;0.62;0.00;0.00;0.62;;;;;30.00;1.00;;;;;;2268040;61;1159;-85
2023/06/17 06:01:30;0.00;0.00;0.62;0.00;0.00;0.62;;;;;29.80;1.00;;;;;;2268099;61;1097;-87
2023/06/17 06:03:57;67277.00;0.22;117.05;0.00;0.00;0.62;;;;;30.20;1.00;;;;;;2268192;61;1192;-89
2023/06/17 06:06:24;36213.00;0.12;63.34;0.00;0.00;0.62;;;;;30.40;1.00;;;;;;2267998;61;2010;-86
2023/06/17 06:08:51;19039.00;0.06;33.61;0.00;0.00;0.62;;;;;31.10;1.00;;;;;;2268076;61;1114;-88
2023/06/17 06:11:18;253946.00;0.85;438.74;41037.00;0.14;71.68;;;;;31.50;1.00;;;;;;2268135;61;1629;-87
2023/06/17 06:13:45;32501.00;0.11;56.91;0.00;0.00;0.62;;;;;32.40;1.00;;;;;;2268009;61;1576;-87
2023/06/17 06:16:13;37083.00;0.12;64.84;0.00;0.00;0.62;;;;;32.50;1.00;;;;;;2267930;61;1326;-87
2023/06/17 06:18:40;0.00;0.00;0.62;0.00;0.00;0.62;;;;;32.00;1.00;;;;;;2267936;61;1625;-86
2023/06/17 06:21:07;166449.00;0.55;288.15;42839.00;0.14;74.80;;;;;32.90;1.00;;;;;;2268089;61;973;-87
2023/06/17 06:23:35;0.00;0.00;0.62;0.00;0.00;0.62;;;;;32.90;1.00;;;;;;2268124;61;1137;-87
2023/06/17 06:26:02;31618.00;0.11;55.38;0.00;0.00;0.62;;;;;32.70;1.00;;;;;;2267914;61;1932;-87
2023/06/17 06:28:29;148972.00;0.50;258.04;31087.00;0.10;54.46;;;;;32.60;1.00;;;;;;2267998;61;983;-86
2023/06/17 06:30:56;115382.00;0.38;200.12;23467.00;0.08;41.27;;;;;32.30;1.00;;;;;;2267976;61;1101;-86
2023/06/17 06:33:24;52031.00;0.17;90.70;0.00;0.00;0.62;;;;;32.50;1.00;;;;;;2267879;61;1159;-86
2023/06/17 06:35:51;29041.00;0.10;50.92;0.00;0.00;0.62;;;;;34.10;1.00;;;;;;2267910;61;1271;-87
2023/06/17 06:38:18;95096.00;0.32;165.11;0.00;0.00;0.62;;;;;34.80;1.00;;;;;;2267932;61;2400;-89
2023/06/17 06:40:45;35742.00;0.12;62.52;0.00;0.00;0.62;;;;;35.00;1.00;;;;;;2267872;61;1597;-88
2023/06/17 06:43:12;94782.00;0.32;164.56;0.00;0.00;0.62;;;;;34.80;1.00;;;;;;2267943;61;1089;-87
2023/06/17 06:45:39;111369.00;0.37;193.19;46554.00;0.16;81.23;;;;;33.50;1.00;;;;;;2267980;61;1998;-87
2023/06/17 06:48:06;73978.00;0.25;128.63;0.00;0.00;0.62;;;;;32.40;1.00;;;;;;2282199;56;3763;-85
2023/06/17 06:50:34;65941.00;0.22;114.75;0.00;0.00;0.62;;;;;32.60;1.00;;;;;;2267829;61;1574;-88
2023/06/17 06:53:01;0.00;0.00;0.62;0.00;0.00;0.62;;;;;32.40;1.00;;;;;;2267786;61;1158;-86
2023/06/17 06:55:29;15545.00;0.05;27.55;0.00;0.00;0.62;;;;;32.70;1.00;;;;;;2267692;61;942;-87
2023/06/17 06:57:56;49138.00;0.16;85.70;0.00;0.00;0.62;;;;;33.60;1.00;;;;;;2268000;61;1278;-87
2023/06/17 07:00:24;71684.00;0.24;124.67;0.00;0.00;0.62;;;;;33.90;1.00;;;;;;2289988;56;3733;-87
2023/06/17 07:02:50;0.00;0.00;0.62;0.00;0.00;0.62;;;;;33.40;1.00;;;;;;2267843;61;1129;-86
2023/06/17 07:05:17;113136.00;0.38;196.24;0.00;0.00;0.62;;;;;32.10;1.00;;;;;;2268003;61;1992;-88
2023/06/17 07:07:46;117041.00;0.39;202.98;0.00;0.00;0.62;;;;;32.10;1.00;;;;;;2274787;55;3944;-86
2023/06/17 07:10:13;118606.00;0.40;205.68;0.00;0.00;0.62;;;;;32.60;1.00;;;;;;2267736;61;1495;-87
2023/06/17 07:12:41;0.00;0.00;0.62;0.00;0.00;0.62;;;;;34.10;1.00;;;;;;2267679;61;1778;-86
2023/06/17 07:15:09;0.00;0.00;0.62;0.00;0.00;0.62;;;;;34.70;1.00;;;;;;2267759;61;2142;-86
2023/06/17 07:17:36;20891.00;0.07;36.81;0.00;0.00;0.62;;;;;34.90;1.00;;;;;;2267804;61;1394;-88
2023/06/17 07:20:05;0.00;0.00;0.62;0.00;0.00;0.62;;;;;35.00;1.00;;;;;;2267913;61;988;-88
2023/06/17 07:22:32;128569.00;0.43;222.86;0.00;0.00;0.62;;;;;35.40;1.00;;;;;;2271209;56;3885;-87
2023/06/17 07:25:00;122307.00;0.41;212.06;0.00;0.00;0.62;;;;;35.90;1.00;;;;;;2263866;61;1999;-85
2023/06/17 07:27:27;46183.00;0.15;80.58;0.00;0.00;0.62;;;;;35.80;1.00;;;;;;2263805;61;1284;-87
2023/06/17 07:29:54;5889.00;0.02;10.83;0.00;0.00;0.62;;;;;35.10;1.00;;;;;;2263425;61;1789;-86
2023/06/17 07:32:21;222394.00;0.74;384.46;2852.00;0.01;5.56;;;;;36.20;1.00;;;;;;2262547;61;1017;-86
2023/06/17 07:34:48;0.00;0.00;0.62;0.00;0.00;0.62;;;;;36.00;1.00;;;;;;2262039;61;1094;-86
2023/06/17 07:37:16;8448.00;0.03;15.26;0.00;0.00;0.62;;;;;35.90;1.00;;;;;;2263377;61;1332;-87
2023/06/17 07:39:48;145366.00;0.48;251.82;0.00;0.00;0.62;;;;;35.80;1.00;;;;;;2352424;56;3749;-86
2023/06/17 07:42:21;165687.00;0.55;286.84;0.00;0.00;0.62;;;;;36.10;1.00;;;;;;2266229;61;1128;-86
2023/06/17 07:44:48;213508.00;0.71;369.17;0.00;0.00;0.62;;;;;37.30;1.00;;;;;;2264684;61;1600;-85
2023/06/17 08:15:19;848335.00;2.83;1465.55;78052.00;0.26;135.67;;;;;37.30;1.00;;;;;;2262407;61;1040;-91
2023/06/17 08:20:23;824280.00;2.75;1423.50;76953.00;0.26;133.77;;;;;37.40;1.00;;;;;;2266447;61;1276;-94
2023/06/17 09:03:16;163667.00;0.55;283.36;0.00;0.00;0.62;;;;;36.80;1.00;;;;;;2266883;61;1020;-89
2023/06/17 09:13:14;387907.00;1.29;669.02;62923.00;0.21;109.53;;;;;36.00;1.00;;;;;;2266398;61;1025;-92
2023/06/17 09:15:43;195695.00;0.65;338.51;33343.00;0.11;58.37;;;;;35.30;1.00;;;;;;2264319;61;1360;-90
2023/06/17 09:18:11;68127.00;0.23;118.52;0.00;0.00;0.62;;;;;35.30;1.00;;;;;;2264292;61;1114;-88
2023/06/17 09:20:40;48387.00;0.16;84.40;0.00;0.00;0.62;;;;;35.70;1.00;;;;;;2264249;61;1106;-88
2023/06/17 09:23:07;0.00;0.00;0.62;0.00;0.00;0.62;;;;;35.70;1.00;;;;;;2264211;61;1790;-88
2023/06/17 09:25:35;10951.00;0.04;19.60;0.00;0.00;0.62;;;;;35.20;1.00;;;;;;2264343;61;1999;-89
2023/06/17 09:28:02;31890.00;0.11;55.85;0.00;0.00;0.62;;;;;35.20;1.00;;;;;;2264126;61;2332;-90
2023/06/17 09:30:29;257549.00;0.86;444.93;40766.00;0.14;71.21;;;;;34.70;1.00;;;;;;2264351;61;993;-89
2023/06/17 09:32:56;97181.00;0.32;168.71;0.00;0.00;0.62;;;;;33.70;1.00;;;;;;2264308;61;922;-88
2023/06/17 09:35:23;38018.00;0.13;66.46;0.00;0.00;0.62;;;;;33.20;1.00;;;;;;2264314;61;1721;-87
2023/06/17 09:37:53;65110.00;0.22;113.31;0.00;0.00;0.62;;;;;33.30;1.00;;;;;;2264170;61;1825;-87
2023/06/17 09:40:20;62915.00;0.21;109.52;0.00;0.00;0.62;;;;;33.60;1.00;;;;;;2264245;61;1154;-86
2023/06/17 09:42:50;213865.00;0.71;369.79;64401.00;0.21;112.08;;;;;34.00;1.00;;;;;;2264304;61;1059;-88
2023/06/17 09:45:24;15862.00;0.05;28.10;0.00;0.00;0.62;;;;;33.90;1.00;;;;;;2264176;61;1997;-88
2023/06/17 09:47:53;50026.00;0.17;87.23;0.00;0.00;0.62;;;;;33.50;1.00;;;;;;2264316;61;1335;-86
2023/06/17 09:50:22;28699.00;0.10;50.33;0.00;0.00;0.62;;;;;33.30;1.00;;;;;;2264137;61;1645;-90
2023/06/17 09:52:54;201078.00;0.67;347.78;0.00;0.00;0.62;;;;;33.00;1.00;;;;;;2284015;40;3595;-88
2023/06/17 09:55:21;20332.00;0.07;35.85;0.00;0.00;0.62;;;;;33.20;1.00;;;;;;2268076;61;1498;-88
2023/06/17 09:57:53;57630.00;0.19;100.38;0.00;0.00;0.62;;;;;33.20;1.00;;;;;;2264403;61;1387;-88
2023/06/17 10:00:23;111714.00;0.37;193.79;0.00;0.00;0.62;;;;;33.40;1.00;;;;;;2264140;61;1145;-89
2023/06/17 10:02:51;48181.00;0.16;84.04;0.00;0.00;0.62;;;;;33.50;1.00;;;;;;2264054;61;1214;-88
2023/06/17 10:05:20;100677.00;0.34;174.74;0.00;0.00;0.62;;;;;33.00;1.00;;;;;;2264133;61;1707;-90
2023/06/17 10:07:47;186943.00;0.62;323.45;14151.00;0.05;25.14;;;;;32.60;1.00;;;;;;2264211;61;1429;-88
2023/06/17 10:10:16;70822.00;0.24;123.18;0.00;0.00;0.62;;;;;32.80;1.00;;;;;;2264136;61;942;-88
2023/06/17 10:12:45;368734.00;1.23;636.06;29188.00;0.10;51.18;;;;;33.00;1.00;;;;;;2263456;61;1070;-87
2023/06/17 10:15:14;516865.00;1.72;890.87;29414.00;0.10;51.57;;;;;33.10;1.00;;;;;;2264042;61;1018;-90
2023/06/17 10:17:45;452729.00;1.51;780.48;16232.00;0.05;28.74;;;;;33.40;1.00;;;;;;2264181;61;1277;-88
2023/06/17 10:20:14;441593.00;1.47;761.32;19798.00;0.07;34.92;;;;;33.90;1.00;;;;;;2264178;61;1044;-88
2023/06/17 10:22:41;476413.00;1.59;821.22;0.00;0.00;0.62;;;;;34.20;1.00;;;;;;2264118;61;1047;-90
2023/06/17 10:25:10;446028.00;1.49;768.95;13674.00;0.05;24.31;;;;;33.80;1.00;;;;;;2263978;61;1698;-89
2023/06/17 10:27:38;549527.00;1.83;947.14;54541.00;0.18;95.04;;;;;33.60;1.00;;;;;;2263970;61;1997;-88
2023/06/17 10:30:23;401669.00;1.34;692.67;21054.00;0.07;37.10;;;;;33.50;1.00;;;;;;2264187;61;995;-87
2023/06/17 10:32:53;456301.00;1.52;786.62;12234.00;0.04;21.82;;;;;33.60;1.00;;;;;;2264055;61;1889;-87
2023/06/17 10:35:21;410798.00;1.37;708.37;0.00;0.00;0.62;;;;;33.40;1.00;;;;;;2264002;61;980;-88
2023/06/17 10:37:48;134820.00;0.45;233.64;0.00;0.00;0.62;;;;;33.10;1.00;;;;;;2264007;61;1292;-89
2023/06/17 10:40:27;489263.00;1.63;843.34;0.00;0.00;0.62;;;;;33.00;1.00;;;;;;2263976;61;1093;-89
2023/06/17 10:43:14;575232.00;1.92;991.47;49724.00;0.17;86.71;;;;;32.50;1.00;;;;;;2264087;61;1026;-88
2023/06/17 10:45:50;302205.00;1.01;521.71;0.00;0.00;0.62;;;;;32.00;1.00;;;;;;2264085;61;1920;-90
2023/06/17 10:48:20;103084.00;0.34;178.89;0.00;0.00;0.62;;;;;32.10;1.00;;;;;;2263985;61;1091;-88
2023/06/17 10:53:17;446068.00;1.49;769.02;0.00;0.00;0.62;;;;;31.70;1.00;;;;;;2265819;61;1245;-88
2023/06/17 10:55:45;275995.00;0.92;476.65;0.00;0.00;0.62;;;;;31.30;1.00;;;;;;2263996;61;1366;-88
2023/06/17 10:58:13;532949.00;1.78;918.57;19747.00;0.07;34.83;;;;;31.70;1.00;;;;;;2263867;61;1769;-89
2023/06/17 11:00:40;682103.00;2.27;1176.22;6077.00;0.02;11.15;;;;;32.00;1.00;;;;;;2264020;61;970;-88
2023/06/17 11:03:09;384707.00;1.28;663.52;0.00;0.00;0.62;;;;;31.80;1.00;;;;;;2263998;61;1121;-89
2023/06/17 11:05:37;558136.00;1.86;961.99;68978.00;0.23;119.99;;;;;31.70;1.00;;;;;;2263983;61;999;-89
2023/06/17 11:08:04;265496.00;0.88;458.60;0.00;0.00;0.62;;;;;32.40;1.00;;;;;;2263879;61;1990;-88
2023/06/17 11:10:32;555330.00;1.85;957.15;42608.00;0.14;74.40;;;;;32.50;1.00;;;;;;2263978;61;1001;-89
2023/06/17 11:12:59;552608.00;1.84;952.46;23573.00;0.08;41.46;;;;;32.30;1.00;;;;;;2263890;61;2208;-88
2023/06/17 11:15:28;451744.00;1.51;778.78;0.00;0.00;0.62;;;;;32.50;1.00;;;;;;2263934;61;1039;-89
2023/06/17 11:18:02;336620.00;1.12;580.86;0.00;0.00;0.62;;;;;32.90;1.00;;;;;;2263841;61;1870;-88
2023/06/17 11:20:31;444271.00;1.48;765.93;70943.00;0.24;123.39;;;;;33.10;1.00;;;;;;2263878;61;1555;-89
2023/06/17 11:22:58;421033.00;1.40;725.97;0.00;0.00;0.62;;;;;33.10;1.00;;;;;;2264045;61;925;-87
2023/06/17 11:25:25;316069.00;1.05;545.54;0.00;0.00;0.62;;;;;32.80;1.00;;;;;;2263996;61;1598;-88
2023/06/17 11:27:52;386460.00;1.29;666.53;0.00;0.00;0.62;;;;;32.50;1.00;;;;;;2263862;61;2005;-88